sensor_id;sensor_type;location;lat;lon;timestamp;pressure;altitude;pressure_sealevel;temperature;humidity
43480;BME280;29067;35.492;-97.520;2022-08-19T00:00:23;97150.71;;;23.13;39.97
43480;BME280;29067;35.492;-97.520;2022-08-19T00:02:51;97151.21;;;24.30;39.23
43480;BME280;29067;35.492;-97.520;2022-08-19T00:05:20;97149.36;;;24.03;40.00
43480;BME280;29067;35.492;-97.520;2022-08-19T00:07:49;97149.14;;;24.46;39.53
43480;BME280;29067;35.492;-97.520;2022-08-19T00:10:18;97148.02;;;25.25;38.34
43480;BME280;29067;35.492;-97.520;2022-08-19T00:12:47;97150.05;;;25.23;37.85
43480;BME280;29067;35.492;-97.520;2022-08-19T00:15:17;97141.98;;;24.75;38.04
43480;BME280;29067;35.492;-97.520;2022-08-19T00:17:46;97139.97;;;24.79;37.90
43480;BME280;29067;35.492;-97.520;2022-08-19T00:20:17;97139.99;;;24.57;38.43
43480;BME280;29067;35.492;-97.520;2022-08-19T00:22:46;97141.62;;;24.67;38.22
43480;BME280;29067;35.492;-97.520;2022-08-19T00:25:14;97142.13;;;24.89;37.29
43480;BME280;29067;35.492;-97.520;2022-08-19T00:27:42;97148.96;;;22.38;38.98
43480;BME280;29067;35.492;-97.520;2022-08-19T00:30:11;97145.73;;;23.77;38.21
43480;BME280;29067;35.492;-97.520;2022-08-19T00:32:40;97145.39;;;24.62;37.44
43480;BME280;29067;35.492;-97.520;2022-08-19T00:35:09;97145.48;;;25.32;36.63
43480;BME280;29067;35.492;-97.520;2022-08-19T00:37:36;97144.73;;;24.58;37.42
43480;BME280;29067;35.492;-97.520;2022-08-19T00:40:06;97142.64;;;24.80;37.16
43480;BME280;29067;35.492;-97.520;2022-08-19T00:42:34;97138.51;;;23.94;38.02
43480;BME280;29067;35.492;-97.520;2022-08-19T00:45:03;97138.61;;;25.11;36.57
43480;BME280;29067;35.492;-97.520;2022-08-19T00:47:36;97140.34;;;25.03;35.92
43480;BME280;29067;35.492;-97.520;2022-08-19T00:50:04;97139.81;;;25.50;35.59
43480;BME280;29067;35.492;-97.520;2022-08-19T00:52:36;97140.22;;;24.57;36.06
43480;BME280;29067;35.492;-97.520;2022-08-19T00:55:07;97139.26;;;24.10;35.73
43480;BME280;29067;35.492;-97.520;2022-08-19T00:57:39;97137.90;;;24.66;34.84
43480;BME280;29067;35.492;-97.520;2022-08-19T01:00:11;97138.47;;;24.37;35.17
43480;BME280;29067;35.492;-97.520;2022-08-19T01:02:41;97144.28;;;24.90;34.20
43480;BME280;29067;35.492;-97.520;2022-08-19T01:05:11;97144.17;;;25.06;34.19
43480;BME280;29067;35.492;-97.520;2022-08-19T01:07:40;97147.78;;;24.18;34.74
43480;BME280;29067;35.492;-97.520;2022-08-19T01:10:13;97152.09;;;25.32;33.92
43480;BME280;29067;35.492;-97.520;2022-08-19T01:12:42;97147.58;;;24.83;34.36
43480;BME280;29067;35.492;-97.520;2022-08-19T01:15:14;97149.30;;;25.15;34.50
43480;BME280;29067;35.492;-97.520;2022-08-19T01:17:43;97145.53;;;24.17;35.43
43480;BME280;29067;35.492;-97.520;2022-08-19T01:20:16;97145.15;;;24.55;34.97
43480;BME280;29067;35.492;-97.520;2022-08-19T01:22:47;97147.57;;;24.50;34.80
43480;BME280;29067;35.492;-97.520;2022-08-19T01:25:17;97148.58;;;24.62;34.98
43480;BME280;29067;35.492;-97.520;2022-08-19T01:27:48;97148.34;;;25.32;34.52
43480;BME280;29067;35.492;-97.520;2022-08-19T01:30:20;97149.44;;;25.06;34.52
43480;BME280;29067;35.492;-97.520;2022-08-19T01:32:49;97153.04;;;24.44;35.28
43480;BME280;29067;35.492;-97.520;2022-08-19T01:35:17;97157.77;;;25.13;34.77
43480;BME280;29067;35.492;-97.520;2022-08-19T01:37:48;97160.32;;;24.20;35.48
43480;BME280;29067;35.492;-97.520;2022-08-19T01:40:18;97162.29;;;24.69;35.05
43480;BME280;29067;35.492;-97.520;2022-08-19T01:42:46;97164.53;;;25.09;34.55
43480;BME280;29067;35.492;-97.520;2022-08-19T01:45:14;97168.72;;;22.93;36.32
43480;BME280;29067;35.492;-97.520;2022-08-19T01:47:42;97172.53;;;24.08;36.05
43480;BME280;29067;35.492;-97.520;2022-08-19T01:50:11;97168.06;;;25.13;34.54
43480;BME280;29067;35.492;-97.520;2022-08-19T01:52:41;97171.58;;;25.29;34.39
43480;BME280;29067;35.492;-97.520;2022-08-19T01:55:14;97171.09;;;24.01;35.44
43480;BME280;29067;35.492;-97.520;2022-08-19T01:57:46;97175.98;;;23.46;35.99
43480;BME280;29067;35.492;-97.520;2022-08-19T02:00:17;97176.13;;;24.34;36.16
43480;BME280;29067;35.492;-97.520;2022-08-19T02:02:46;97181.87;;;22.82;36.61
43480;BME280;29067;35.492;-97.520;2022-08-19T02:05:14;97180.68;;;24.09;36.43
43480;BME280;29067;35.492;-97.520;2022-08-19T02:07:43;97183.13;;;22.76;37.22
43480;BME280;29067;35.492;-97.520;2022-08-19T02:10:16;97186.45;;;23.09;36.86
43480;BME280;29067;35.492;-97.520;2022-08-19T02:12:45;97187.20;;;23.47;36.27
43480;BME280;29067;35.492;-97.520;2022-08-19T02:15:14;97186.99;;;24.06;35.71
43480;BME280;29067;35.492;-97.520;2022-08-19T02:17:42;97190.59;;;23.72;35.98
43480;BME280;29067;35.492;-97.520;2022-08-19T02:20:11;97190.01;;;24.36;35.60
43480;BME280;29067;35.492;-97.520;2022-08-19T02:22:40;97190.22;;;23.88;36.26
43480;BME280;29067;35.492;-97.520;2022-08-19T02:25:08;97190.24;;;23.53;36.33
43480;BME280;29067;35.492;-97.520;2022-08-19T02:27:37;97190.07;;;24.59;34.99
43480;BME280;29067;35.492;-97.520;2022-08-19T02:30:09;97193.32;;;24.70;34.82
43480;BME280;29067;35.492;-97.520;2022-08-19T02:32:38;97198.84;;;24.50;35.82
43480;BME280;29067;35.492;-97.520;2022-08-19T02:35:06;97207.09;;;23.13;36.68
43480;BME280;29067;35.492;-97.520;2022-08-19T02:37:35;97211.32;;;23.70;36.38
43480;BME280;29067;35.492;-97.520;2022-08-19T02:40:04;97213.32;;;24.45;36.21
43480;BME280;29067;35.492;-97.520;2022-08-19T02:42:31;97210.83;;;25.62;34.75
43480;BME280;29067;35.492;-97.520;2022-08-19T02:44:59;97213.79;;;25.59;34.22
43480;BME280;29067;35.492;-97.520;2022-08-19T02:47:27;97215.89;;;26.10;34.15
43480;BME280;29067;35.492;-97.520;2022-08-19T02:49:54;97216.15;;;25.32;34.44
43480;BME280;29067;35.492;-97.520;2022-08-19T02:52:22;97217.27;;;26.13;33.89
43480;BME280;29067;35.492;-97.520;2022-08-19T02:54:49;97219.46;;;25.65;34.15
43480;BME280;29067;35.492;-97.520;2022-08-19T02:57:17;97220.62;;;26.65;33.37
43480;BME280;29067;35.492;-97.520;2022-08-19T02:59:44;97223.79;;;26.91;33.46
43480;BME280;29067;35.492;-97.520;2022-08-19T03:02:12;97228.67;;;26.67;33.84
43480;BME280;29067;35.492;-97.520;2022-08-19T03:04:39;97228.29;;;25.67;33.37
43480;BME280;29067;35.492;-97.520;2022-08-19T03:07:07;97227.56;;;27.52;33.14
43480;BME280;29067;35.492;-97.520;2022-08-19T03:09:37;97225.47;;;26.24;33.33
43480;BME280;29067;35.492;-97.520;2022-08-19T03:12:06;97228.89;;;27.40;32.89
43480;BME280;29067;35.492;-97.520;2022-08-19T03:14:34;97228.71;;;27.77;32.72
43480;BME280;29067;35.492;-97.520;2022-08-19T03:17:04;97229.19;;;26.59;33.25
43480;BME280;29067;35.492;-97.520;2022-08-19T03:19:32;97230.01;;;27.13;33.03
43480;BME280;29067;35.492;-97.520;2022-08-19T03:22:00;97235.64;;;27.03;33.36
43480;BME280;29067;35.492;-97.520;2022-08-19T03:24:27;97238.18;;;26.00;33.58
43480;BME280;29067;35.492;-97.520;2022-08-19T03:26:56;97237.17;;;26.64;33.82
43480;BME280;29067;35.492;-97.520;2022-08-19T03:29:25;97237.37;;;25.91;33.92
43480;BME280;29067;35.492;-97.520;2022-08-19T03:31:53;97236.46;;;26.30;33.32
43480;BME280;29067;35.492;-97.520;2022-08-19T03:34:24;97240.44;;;25.95;33.98
43480;BME280;29067;35.492;-97.520;2022-08-19T03:36:52;97238.77;;;26.19;34.05
43480;BME280;29067;35.492;-97.520;2022-08-19T03:39:21;97237.83;;;25.85;34.24
43480;BME280;29067;35.492;-97.520;2022-08-19T03:41:50;97242.73;;;26.52;34.07
43480;BME280;29067;35.492;-97.520;2022-08-19T03:44:22;97238.51;;;25.69;34.39
43480;BME280;29067;35.492;-97.520;2022-08-19T03:46:51;97238.90;;;26.86;33.44
43480;BME280;29067;35.492;-97.520;2022-08-19T03:49:20;97242.78;;;26.91;33.31
43480;BME280;29067;35.492;-97.520;2022-08-19T03:51:49;97247.44;;;26.32;33.57
43480;BME280;29067;35.492;-97.520;2022-08-19T03:54:20;97244.62;;;25.01;33.94
43480;BME280;29067;35.492;-97.520;2022-08-19T03:56:49;97240.64;;;26.29;33.82
43480;BME280;29067;35.492;-97.520;2022-08-19T03:59:21;97236.74;;;26.42;33.68
43480;BME280;29067;35.492;-97.520;2022-08-19T04:01:49;97236.93;;;26.38;33.75
43480;BME280;29067;35.492;-97.520;2022-08-19T04:04:17;97236.88;;;25.27;35.30
43480;BME280;29067;35.492;-97.520;2022-08-19T04:06:44;97239.96;;;25.04;35.36
43480;BME280;29067;35.492;-97.520;2022-08-19T04:09:12;97238.72;;;25.08;35.11
43480;BME280;29067;35.492;-97.520;2022-08-19T04:11:43;97239.15;;;26.26;34.59
43480;BME280;29067;35.492;-97.520;2022-08-19T04:14:13;97237.00;;;25.68;34.71
43480;BME280;29067;35.492;-97.520;2022-08-19T04:16:41;97238.05;;;25.19;35.49
43480;BME280;29067;35.492;-97.520;2022-08-19T04:19:09;97232.60;;;25.84;34.71
43480;BME280;29067;35.492;-97.520;2022-08-19T04:21:38;97232.77;;;25.60;34.99
43480;BME280;29067;35.492;-97.520;2022-08-19T04:24:06;97235.20;;;23.45;36.34
43480;BME280;29067;35.492;-97.520;2022-08-19T04:26:36;97233.55;;;26.02;35.05
43480;BME280;29067;35.492;-97.520;2022-08-19T04:29:06;97237.64;;;26.15;35.48
43480;BME280;29067;35.492;-97.520;2022-08-19T04:31:35;97230.75;;;25.42;35.84
43480;BME280;29067;35.492;-97.520;2022-08-19T04:34:05;97226.42;;;24.64;36.71
43480;BME280;29067;35.492;-97.520;2022-08-19T04:36:36;97226.12;;;24.60;36.63
43480;BME280;29067;35.492;-97.520;2022-08-19T04:39:07;97229.10;;;25.46;35.93
43480;BME280;29067;35.492;-97.520;2022-08-19T04:41:36;97227.24;;;24.32;36.68
43480;BME280;29067;35.492;-97.520;2022-08-19T04:44:04;97226.81;;;25.34;36.03
43480;BME280;29067;35.492;-97.520;2022-08-19T04:46:32;97226.36;;;23.65;37.24
43480;BME280;29067;35.492;-97.520;2022-08-19T04:49:02;97224.37;;;24.92;36.28
43480;BME280;29067;35.492;-97.520;2022-08-19T04:51:31;97228.12;;;25.30;36.05
43480;BME280;29067;35.492;-97.520;2022-08-19T04:54:00;97227.97;;;24.90;36.48
43480;BME280;29067;35.492;-97.520;2022-08-19T04:56:28;97227.50;;;25.78;35.96
43480;BME280;29067;35.492;-97.520;2022-08-19T04:58:57;97227.94;;;24.02;36.62
43480;BME280;29067;35.492;-97.520;2022-08-19T05:01:26;97226.71;;;24.88;37.06
43480;BME280;29067;35.492;-97.520;2022-08-19T05:03:54;97227.51;;;23.91;37.22
43480;BME280;29067;35.492;-97.520;2022-08-19T05:06:23;97226.22;;;24.66;36.88
43480;BME280;29067;35.492;-97.520;2022-08-19T05:08:52;97228.55;;;25.40;36.27
43480;BME280;29067;35.492;-97.520;2022-08-19T05:11:22;97233.00;;;25.01;36.65
43480;BME280;29067;35.492;-97.520;2022-08-19T05:13:51;97235.86;;;25.26;36.50
43480;BME280;29067;35.492;-97.520;2022-08-19T05:16:21;97239.39;;;25.99;36.30
43480;BME280;29067;35.492;-97.520;2022-08-19T05:18:50;97241.63;;;25.58;36.94
43480;BME280;29067;35.492;-97.520;2022-08-19T05:21:20;97240.06;;;25.15;36.53
43480;BME280;29067;35.492;-97.520;2022-08-19T05:23:48;97245.81;;;23.00;38.15
43480;BME280;29067;35.492;-97.520;2022-08-19T05:26:15;97241.30;;;24.30;37.24
43480;BME280;29067;35.492;-97.520;2022-08-19T05:28:43;97243.06;;;24.68;36.94
43480;BME280;29067;35.492;-97.520;2022-08-19T05:31:11;97245.54;;;25.51;36.87
43480;BME280;29067;35.492;-97.520;2022-08-19T05:33:39;97247.77;;;25.49;37.04
43480;BME280;29067;35.492;-97.520;2022-08-19T05:36:07;97245.87;;;25.73;36.78
43480;BME280;29067;35.492;-97.520;2022-08-19T05:38:35;97238.27;;;26.20;36.47
43480;BME280;29067;35.492;-97.520;2022-08-19T05:41:07;97240.88;;;25.88;36.27
43480;BME280;29067;35.492;-97.520;2022-08-19T05:43:36;97246.05;;;26.10;36.58
43480;BME280;29067;35.492;-97.520;2022-08-19T05:46:04;97246.48;;;25.64;36.29
43480;BME280;29067;35.492;-97.520;2022-08-19T05:48:33;97250.82;;;25.92;36.38
43480;BME280;29067;35.492;-97.520;2022-08-19T05:51:04;97256.07;;;25.32;36.42
43480;BME280;29067;35.492;-97.520;2022-08-19T05:53:33;97260.75;;;23.99;38.50
43480;BME280;29067;35.492;-97.520;2022-08-19T05:56:04;97256.26;;;24.61;38.15
43480;BME280;29067;35.492;-97.520;2022-08-19T05:58:33;97261.14;;;23.71;38.99
43480;BME280;29067;35.492;-97.520;2022-08-19T06:01:02;97252.33;;;25.83;37.67
43480;BME280;29067;35.492;-97.520;2022-08-19T06:03:30;97253.52;;;24.85;38.31
43480;BME280;29067;35.492;-97.520;2022-08-19T06:05:58;97252.06;;;25.08;38.78
43480;BME280;29067;35.492;-97.520;2022-08-19T06:08:27;97252.78;;;24.72;38.35
43480;BME280;29067;35.492;-97.520;2022-08-19T06:10:55;97258.47;;;23.49;39.78
43480;BME280;29067;35.492;-97.520;2022-08-19T06:13:24;97258.49;;;23.30;39.73
43480;BME280;29067;35.492;-97.520;2022-08-19T06:15:52;97251.76;;;25.15;39.04
43480;BME280;29067;35.492;-97.520;2022-08-19T06:18:20;97255.13;;;24.21;40.28
43480;BME280;29067;35.492;-97.520;2022-08-19T06:20:48;97254.22;;;22.61;41.86
43480;BME280;29067;35.492;-97.520;2022-08-19T06:23:16;97262.27;;;24.52;40.69
43480;BME280;29067;35.492;-97.520;2022-08-19T06:25:43;97269.94;;;23.73;40.43
43480;BME280;29067;35.492;-97.520;2022-08-19T06:28:11;97270.82;;;24.48;40.70
43480;BME280;29067;35.492;-97.520;2022-08-19T06:30:38;97266.75;;;23.66;41.84
43480;BME280;29067;35.492;-97.520;2022-08-19T06:33:06;97269.22;;;23.12;42.75
43480;BME280;29067;35.492;-97.520;2022-08-19T06:35:38;97268.96;;;23.49;42.55
43480;BME280;29067;35.492;-97.520;2022-08-19T06:38:06;97274.71;;;22.86;43.21
43480;BME280;29067;35.492;-97.520;2022-08-19T06:40:34;97273.43;;;22.99;42.71
43480;BME280;29067;35.492;-97.520;2022-08-19T06:43:02;97266.85;;;23.62;42.75
43480;BME280;29067;35.492;-97.520;2022-08-19T06:45:29;97267.54;;;22.83;43.55
43480;BME280;29067;35.492;-97.520;2022-08-19T06:47:57;97271.95;;;23.11;43.23
43480;BME280;29067;35.492;-97.520;2022-08-19T06:50:25;97273.19;;;23.47;42.99
43480;BME280;29067;35.492;-97.520;2022-08-19T06:52:53;97269.81;;;23.31;43.35
43480;BME280;29067;35.492;-97.520;2022-08-19T06:55:21;97268.87;;;23.09;44.26
43480;BME280;29067;35.492;-97.520;2022-08-19T06:57:49;97269.72;;;24.12;43.38
43480;BME280;29067;35.492;-97.520;2022-08-19T07:00:17;97265.97;;;23.82;43.57
43480;BME280;29067;35.492;-97.520;2022-08-19T07:02:45;97260.76;;;23.77;44.47
43480;BME280;29067;35.492;-97.520;2022-08-19T07:05:13;97258.49;;;23.86;44.57
43480;BME280;29067;35.492;-97.520;2022-08-19T07:07:41;97256.67;;;23.76;44.99
43480;BME280;29067;35.492;-97.520;2022-08-19T07:10:09;97256.68;;;24.28;44.52
43480;BME280;29067;35.492;-97.520;2022-08-19T07:12:37;97253.96;;;24.32;44.52
43480;BME280;29067;35.492;-97.520;2022-08-19T07:15:06;97257.63;;;23.60;45.85
43480;BME280;29067;35.492;-97.520;2022-08-19T07:17:34;97259.16;;;23.61;46.00
43480;BME280;29067;35.492;-97.520;2022-08-19T07:20:03;97259.54;;;24.38;45.03
43480;BME280;29067;35.492;-97.520;2022-08-19T07:22:31;97261.98;;;23.99;45.98
43480;BME280;29067;35.492;-97.520;2022-08-19T07:24:59;97260.71;;;24.75;45.31
43480;BME280;29067;35.492;-97.520;2022-08-19T07:27:26;97255.70;;;25.07;45.31
43480;BME280;29067;35.492;-97.520;2022-08-19T07:29:54;97252.39;;;25.28;44.96
43480;BME280;29067;35.492;-97.520;2022-08-19T07:32:23;97253.84;;;24.25;46.20
43480;BME280;29067;35.492;-97.520;2022-08-19T07:34:51;97251.08;;;25.14;44.84
43480;BME280;29067;35.492;-97.520;2022-08-19T07:37:18;97254.52;;;25.05;44.73
43480;BME280;29067;35.492;-97.520;2022-08-19T07:39:46;97256.38;;;23.47;46.02
43480;BME280;29067;35.492;-97.520;2022-08-19T07:42:14;97255.65;;;23.05;46.91
43480;BME280;29067;35.492;-97.520;2022-08-19T07:44:43;97249.50;;;23.50;47.56
43480;BME280;29067;35.492;-97.520;2022-08-19T07:47:10;97245.90;;;23.33;48.12
43480;BME280;29067;35.492;-97.520;2022-08-19T07:49:38;97246.53;;;21.61;50.65
43480;BME280;29067;35.492;-97.520;2022-08-19T07:52:08;97246.10;;;22.19;51.01
43480;BME280;29067;35.492;-97.520;2022-08-19T07:54:38;97238.38;;;23.23;49.13
43480;BME280;29067;35.492;-97.520;2022-08-19T07:57:06;97239.00;;;22.95;49.75
43480;BME280;29067;35.492;-97.520;2022-08-19T07:59:35;97238.08;;;22.83;50.30
43480;BME280;29067;35.492;-97.520;2022-08-19T08:02:03;97233.34;;;23.33;50.37
43480;BME280;29067;35.492;-97.520;2022-08-19T08:04:31;97230.62;;;24.31;48.92
43480;BME280;29067;35.492;-97.520;2022-08-19T08:06:59;97234.76;;;22.13;51.76
43480;BME280;29067;35.492;-97.520;2022-08-19T08:09:32;97239.42;;;21.48;53.16
43480;BME280;29067;35.492;-97.520;2022-08-19T08:12:03;97241.21;;;22.16;53.45
43480;BME280;29067;35.492;-97.520;2022-08-19T08:14:36;97234.57;;;22.85;52.73
43480;BME280;29067;35.492;-97.520;2022-08-19T08:17:05;97235.13;;;22.53;54.31
43480;BME280;29067;35.492;-97.520;2022-08-19T08:19:34;97236.63;;;22.00;54.51
43480;BME280;29067;35.492;-97.520;2022-08-19T08:22:03;97231.95;;;22.01;53.96
43480;BME280;29067;35.492;-97.520;2022-08-19T08:24:32;97228.50;;;22.57;52.96
43480;BME280;29067;35.492;-97.520;2022-08-19T08:27:01;97230.13;;;24.29;52.08
43480;BME280;29067;35.492;-97.520;2022-08-19T08:29:30;97231.36;;;22.32;55.12
43480;BME280;29067;35.492;-97.520;2022-08-19T08:31:58;97227.17;;;22.11;56.75
43480;BME280;29067;35.492;-97.520;2022-08-19T08:34:26;97228.44;;;21.84;56.19
43480;BME280;29067;35.492;-97.520;2022-08-19T08:36:53;97228.73;;;20.96;58.98
43480;BME280;29067;35.492;-97.520;2022-08-19T08:39:21;97226.26;;;22.19;55.63
43480;BME280;29067;35.492;-97.520;2022-08-19T08:41:54;97224.94;;;22.72;55.73
43480;BME280;29067;35.492;-97.520;2022-08-19T09:00:23;97202.78;;;24.80;54.07
43480;BME280;29067;35.492;-97.520;2022-08-19T09:02:50;97201.22;;;20.94;53.51
43480;BME280;29067;35.492;-97.520;2022-08-19T09:05:19;97199.13;;;22.28;53.62
43480;BME280;29067;35.492;-97.520;2022-08-19T09:07:53;97196.26;;;23.53;52.95
43480;BME280;29067;35.492;-97.520;2022-08-19T09:10:29;97192.44;;;23.49;52.48
43480;BME280;29067;35.492;-97.520;2022-08-19T09:13:06;97196.02;;;23.06;53.58
43480;BME280;29067;35.492;-97.520;2022-08-19T09:15:42;97201.19;;;23.98;53.61
43480;BME280;29067;35.492;-97.520;2022-08-19T09:18:12;97201.18;;;22.13;55.41
43480;BME280;29067;35.492;-97.520;2022-08-19T09:20:40;97197.36;;;23.56;53.98
43480;BME280;29067;35.492;-97.520;2022-08-19T09:23:08;97192.23;;;23.87;53.53
43480;BME280;29067;35.492;-97.520;2022-08-19T09:25:36;97188.17;;;23.21;53.67
43480;BME280;29067;35.492;-97.520;2022-08-19T09:28:03;97184.66;;;23.67;54.02
43480;BME280;29067;35.492;-97.520;2022-08-19T09:30:34;97183.17;;;23.48;53.80
43480;BME280;29067;35.492;-97.520;2022-08-19T09:33:02;97183.80;;;23.40;53.68
43480;BME280;29067;35.492;-97.520;2022-08-19T09:35:31;97183.31;;;22.56;56.47
43480;BME280;29067;35.492;-97.520;2022-08-19T09:37:59;97182.30;;;23.06;55.38
43480;BME280;29067;35.492;-97.520;2022-08-19T09:40:27;97179.05;;;23.71;53.59
43480;BME280;29067;35.492;-97.520;2022-08-19T09:42:55;97177.31;;;23.02;53.76
43480;BME280;29067;35.492;-97.520;2022-08-19T09:45:23;97173.89;;;22.58;54.89
43480;BME280;29067;35.492;-97.520;2022-08-19T09:47:52;97177.61;;;22.77;56.35
43480;BME280;29067;35.492;-97.520;2022-08-19T09:50:20;97178.33;;;22.90;55.22
43480;BME280;29067;35.492;-97.520;2022-08-19T09:52:49;97177.45;;;22.78;55.63
43480;BME280;29067;35.492;-97.520;2022-08-19T09:55:16;97175.10;;;22.41;56.17
43480;BME280;29067;35.492;-97.520;2022-08-19T09:57:44;97174.07;;;22.94;55.12
43480;BME280;29067;35.492;-97.520;2022-08-19T10:00:12;97172.74;;;22.76;55.75
43480;BME280;29067;35.492;-97.520;2022-08-19T10:02:40;97168.57;;;23.08;54.44
43480;BME280;29067;35.492;-97.520;2022-08-19T10:05:08;97168.67;;;22.74;54.70
43480;BME280;29067;35.492;-97.520;2022-08-19T10:07:36;97169.28;;;24.33;53.50
43480;BME280;29067;35.492;-97.520;2022-08-19T10:10:06;97172.33;;;23.85;53.97
43480;BME280;29067;35.492;-97.520;2022-08-19T10:12:35;97173.71;;;23.19;54.56
43480;BME280;29067;35.492;-97.520;2022-08-19T10:15:05;97174.34;;;22.96;54.86
43480;BME280;29067;35.492;-97.520;2022-08-19T10:17:33;97174.13;;;22.50;55.25
43480;BME280;29067;35.492;-97.520;2022-08-19T10:20:02;97173.12;;;23.21;55.27
43480;BME280;29067;35.492;-97.520;2022-08-19T10:22:30;97174.24;;;23.75;54.29
43480;BME280;29067;35.492;-97.520;2022-08-19T10:24:59;97172.30;;;22.57;56.31
43480;BME280;29067;35.492;-97.520;2022-08-19T10:27:27;97173.41;;;23.51;54.84
43480;BME280;29067;35.492;-97.520;2022-08-19T10:29:55;97171.75;;;23.09;54.26
43480;BME280;29067;35.492;-97.520;2022-08-19T10:32:23;97171.46;;;22.20;55.82
43480;BME280;29067;35.492;-97.520;2022-08-19T10:34:51;97168.70;;;23.86;53.92
43480;BME280;29067;35.492;-97.520;2022-08-19T10:37:18;97166.59;;;22.97;55.00
43480;BME280;29067;35.492;-97.520;2022-08-19T10:39:46;97164.94;;;22.92;55.24
43480;BME280;29067;35.492;-97.520;2022-08-19T10:42:14;97169.82;;;21.46;56.40
43480;BME280;29067;35.492;-97.520;2022-08-19T10:44:42;97168.98;;;23.53;54.37
43480;BME280;29067;35.492;-97.520;2022-08-19T10:47:10;97171.17;;;22.52;56.76
43480;BME280;29067;35.492;-97.520;2022-08-19T10:49:38;97169.15;;;22.60;56.26
43480;BME280;29067;35.492;-97.520;2022-08-19T10:52:06;97171.03;;;22.25;56.73
43480;BME280;29067;35.492;-97.520;2022-08-19T10:54:33;97169.17;;;22.91;55.07
43480;BME280;29067;35.492;-97.520;2022-08-19T10:57:02;97170.29;;;22.72;56.55
43480;BME280;29067;35.492;-97.520;2022-08-19T10:59:29;97172.38;;;22.76;57.02
43480;BME280;29067;35.492;-97.520;2022-08-19T11:03:00;97178.52;;;22.37;57.84
43480;BME280;29067;35.492;-97.520;2022-08-19T11:05:28;97177.41;;;22.90;56.44
43480;BME280;29067;35.492;-97.520;2022-08-19T11:07:56;97177.20;;;22.10;58.52
43480;BME280;29067;35.492;-97.520;2022-08-19T11:10:23;97180.46;;;22.33;58.34
43480;BME280;29067;35.492;-97.520;2022-08-19T11:12:51;97179.74;;;21.28;60.10
43480;BME280;29067;35.492;-97.520;2022-08-19T11:15:19;97175.99;;;21.40;60.22
43480;BME280;29067;35.492;-97.520;2022-08-19T11:17:46;97173.76;;;22.16;58.53
43480;BME280;29067;35.492;-97.520;2022-08-19T11:20:14;97174.41;;;22.69;57.05
43480;BME280;29067;35.492;-97.520;2022-08-19T11:22:43;97176.91;;;21.89;57.98
43480;BME280;29067;35.492;-97.520;2022-08-19T11:25:11;97174.18;;;21.57;60.07
43480;BME280;29067;35.492;-97.520;2022-08-19T11:27:40;97167.78;;;22.56;58.19
43480;BME280;29067;35.492;-97.520;2022-08-19T11:30:10;97164.54;;;22.60;57.14
43480;BME280;29067;35.492;-97.520;2022-08-19T11:32:38;97172.62;;;21.62;60.29
43480;BME280;29067;35.492;-97.520;2022-08-19T11:35:07;97174.19;;;21.91;59.00
43480;BME280;29067;35.492;-97.520;2022-08-19T11:37:35;97177.00;;;22.36;59.26
43480;BME280;29067;35.492;-97.520;2022-08-19T11:40:03;97172.01;;;22.52;58.46
43480;BME280;29067;35.492;-97.520;2022-08-19T11:42:31;97171.52;;;22.01;59.96
43480;BME280;29067;35.492;-97.520;2022-08-19T11:44:59;97168.78;;;22.26;58.05
43480;BME280;29067;35.492;-97.520;2022-08-19T11:47:27;97169.73;;;22.63;58.66
43480;BME280;29067;35.492;-97.520;2022-08-19T11:49:55;97170.83;;;22.74;58.19
43480;BME280;29067;35.492;-97.520;2022-08-19T11:52:22;97175.20;;;21.34;61.41
43480;BME280;29067;35.492;-97.520;2022-08-19T11:54:50;97174.46;;;22.30;58.88
43480;BME280;29067;35.492;-97.520;2022-08-19T11:57:17;97171.89;;;22.36;58.94
43480;BME280;29067;35.492;-97.520;2022-08-19T11:59:51;97171.16;;;23.05;57.77
43480;BME280;29067;35.492;-97.520;2022-08-19T12:02:19;97179.58;;;22.00;60.20
43480;BME280;29067;35.492;-97.520;2022-08-19T12:04:47;97185.39;;;21.39;62.73
43480;BME280;29067;35.492;-97.520;2022-08-19T12:07:15;97187.46;;;21.85;61.98
43480;BME280;29067;35.492;-97.520;2022-08-19T12:09:43;97186.75;;;21.37;63.85
43480;BME280;29067;35.492;-97.520;2022-08-19T12:12:11;97186.72;;;21.06;65.66
43480;BME280;29067;35.492;-97.520;2022-08-19T12:14:39;97182.55;;;21.43;65.26
43480;BME280;29067;35.492;-97.520;2022-08-19T12:17:07;97185.81;;;20.58;68.74
43480;BME280;29067;35.492;-97.520;2022-08-19T12:19:36;97185.76;;;21.36;68.08
43480;BME280;29067;35.492;-97.520;2022-08-19T12:22:05;97187.51;;;20.55;67.56
43480;BME280;29067;35.492;-97.520;2022-08-19T12:24:32;97186.45;;;21.23;64.31
43480;BME280;29067;35.492;-97.520;2022-08-19T12:27:00;97187.52;;;20.47;69.79
43480;BME280;29067;35.492;-97.520;2022-08-19T12:29:29;97185.01;;;20.54;69.28
43480;BME280;29067;35.492;-97.520;2022-08-19T12:31:57;97180.84;;;21.58;64.70
43480;BME280;29067;35.492;-97.520;2022-08-19T12:34:25;97187.22;;;21.31;65.70
43480;BME280;29067;35.492;-97.520;2022-08-19T12:36:53;97186.07;;;21.61;63.85
43480;BME280;29067;35.492;-97.520;2022-08-19T12:39:20;97186.47;;;20.99;65.46
43480;BME280;29067;35.492;-97.520;2022-08-19T12:41:48;97183.62;;;21.17;64.84
43480;BME280;29067;35.492;-97.520;2022-08-19T12:44:16;97183.41;;;21.36;64.62
43480;BME280;29067;35.492;-97.520;2022-08-19T12:46:45;97183.80;;;21.23;64.74
43480;BME280;29067;35.492;-97.520;2022-08-19T12:49:13;97185.56;;;21.18;64.40
43480;BME280;29067;35.492;-97.520;2022-08-19T12:51:42;97189.20;;;22.15;62.08
43480;BME280;29067;35.492;-97.520;2022-08-19T12:54:10;97194.03;;;21.72;63.03
43480;BME280;29067;35.492;-97.520;2022-08-19T12:56:37;97194.40;;;23.10;59.83
43480;BME280;29067;35.492;-97.520;2022-08-19T12:59:05;97196.90;;;22.84;59.88
43480;BME280;29067;35.492;-97.520;2022-08-19T13:01:32;97201.64;;;22.03;62.10
43480;BME280;29067;35.492;-97.520;2022-08-19T13:04:00;97197.30;;;23.40;59.21